sensor_id;sensor_type;location;lat;lon;timestamp;P1;durP1;ratioP1;P2;durP2;ratioP2
1525;SDS011;756;49.982;8.240;2022-08-03T00:00:25;2.40;;;2.20;;
1525;SDS011;756;49.982;8.240;2022-08-03T00:02:52;3.80;;;2.47;;
1525;SDS011;756;49.982;8.240;2022-08-03T00:05:19;2.50;;;2.30;;
1525;SDS011;756;49.982;8.240;2022-08-03T00:07:46;3.33;;;3.00;;
1525;SDS011;756;49.982;8.240;2022-08-03T00:10:14;2.10;;;1.83;;
1525;SDS011;756;49.982;8.240;2022-08-03T00:12:42;2.53;;;2.33;;
1525;SDS011;756;49.982;8.240;2022-08-03T00:15:09;2.87;;;2.53;;
1525;SDS011;756;49.982;8.240;2022-08-03T00:17:42;4.10;;;2.60;;
1525;SDS011;756;49.982;8.240;2022-08-03T00:20:19;2.70;;;2.50;;
1525;SDS011;756;49.982;8.240;2022-08-03T00:22:47;3.53;;;2.70;;
1525;SDS011;756;49.982;8.240;2022-08-03T00:25:14;2.60;;;2.40;;
1525;SDS011;756;49.982;8.240;2022-08-03T00:27:41;2.43;;;2.23;;
1525;SDS011;756;49.982;8.240;2022-08-03T00:30:08;2.73;;;2.53;;
1525;SDS011;756;49.982;8.240;2022-08-03T00:32:35;2.77;;;2.57;;
1525;SDS011;756;49.982;8.240;2022-08-03T00:35:09;2.87;;;2.43;;
1525;SDS011;756;49.982;8.240;2022-08-03T00:37:57;3.53;;;2.70;;
1525;SDS011;756;49.982;8.240;2022-08-03T00:40:23;3.30;;;2.60;;
1525;SDS011;756;49.982;8.240;2022-08-03T00:42:52;3.50;;;2.73;;
1525;SDS011;756;49.982;8.240;2022-08-03T00:45:21;3.07;;;2.63;;
1525;SDS011;756;49.982;8.240;2022-08-03T00:47:59;3.10;;;2.60;;
1525;SDS011;756;49.982;8.240;2022-08-03T00:50:27;4.30;;;2.97;;
1525;SDS011;756;49.982;8.240;2022-08-03T00:52:57;3.70;;;2.57;;
1525;SDS011;756;49.982;8.240;2022-08-03T00:55:24;2.50;;;2.30;;
1525;SDS011;756;49.982;8.240;2022-08-03T00:57:51;3.07;;;2.80;;
1525;SDS011;756;49.982;8.240;2022-08-03T01:00:20;2.93;;;2.73;;
1525;SDS011;756;49.982;8.240;2022-08-03T01:02:49;2.70;;;2.50;;
1525;SDS011;756;49.982;8.240;2022-08-03T01:05:16;2.83;;;2.63;;
1525;SDS011;756;49.982;8.240;2022-08-03T01:16:30;3.10;;;2.73;;
1525;SDS011;756;49.982;8.240;2022-08-03T01:25:18;3.57;;;3.27;;
1525;SDS011;756;49.982;8.240;2022-08-03T01:27:47;2.90;;;2.30;;
1525;SDS011;756;49.982;8.240;2022-08-03T01:30:15;3.57;;;2.87;;
1525;SDS011;756;49.982;8.240;2022-08-03T01:32:51;3.63;;;3.33;;
1525;SDS011;756;49.982;8.240;2022-08-03T01:35:28;3.47;;;3.17;;
1525;SDS011;756;49.982;8.240;2022-08-03T01:38:11;2.90;;;2.70;;
1525;SDS011;756;49.982;8.240;2022-08-03T01:40:40;3.30;;;3.03;;
1525;SDS011;756;49.982;8.240;2022-08-03T01:43:10;5.57;;;2.90;;
1525;SDS011;756;49.982;8.240;2022-08-03T01:46:01;2.67;;;2.40;;
1525;SDS011;756;49.982;8.240;2022-08-03T01:48:29;3.40;;;2.77;;
1525;SDS011;756;49.982;8.240;2022-08-03T01:50:57;4.70;;;3.07;;
1525;SDS011;756;49.982;8.240;2022-08-03T01:53:25;3.30;;;2.80;;
1525;SDS011;756;49.982;8.240;2022-08-03T01:55:54;3.33;;;2.90;;
1525;SDS011;756;49.982;8.240;2022-08-03T01:58:21;3.20;;;2.90;;
1525;SDS011;756;49.982;8.240;2022-08-03T02:00:51;4.17;;;3.70;;
1525;SDS011;756;49.982;8.240;2022-08-03T02:03:23;5.27;;;3.00;;
1525;SDS011;756;49.982;8.240;2022-08-03T02:05:50;6.90;;;3.70;;
1525;SDS011;756;49.982;8.240;2022-08-03T02:08:40;3.30;;;3.00;;
1525;SDS011;756;49.982;8.240;2022-08-03T02:11:09;3.97;;;2.97;;
1525;SDS011;756;49.982;8.240;2022-08-03T02:13:43;3.50;;;3.20;;
1525;SDS011;756;49.982;8.240;2022-08-03T02:16:12;3.33;;;2.90;;
1525;SDS011;756;49.982;8.240;2022-08-03T02:18:40;3.20;;;2.90;;
1525;SDS011;756;49.982;8.240;2022-08-03T02:21:08;3.53;;;3.23;;
1525;SDS011;756;49.982;8.240;2022-08-03T02:23:56;3.27;;;2.97;;
1525;SDS011;756;49.982;8.240;2022-08-03T02:26:24;3.10;;;2.70;;
1525;SDS011;756;49.982;8.240;2022-08-03T02:28:56;3.50;;;3.20;;
1525;SDS011;756;49.982;8.240;2022-08-03T02:31:27;3.53;;;3.23;;
1525;SDS011;756;49.982;8.240;2022-08-03T02:34:00;4.47;;;3.47;;
1525;SDS011;756;49.982;8.240;2022-08-03T02:36:32;4.03;;;3.10;;
1525;SDS011;756;49.982;8.240;2022-08-03T02:39:02;3.77;;;3.47;;
1525;SDS011;756;49.982;8.240;2022-08-03T02:41:37;3.53;;;3.23;;
1525;SDS011;756;49.982;8.240;2022-08-03T02:44:08;3.60;;;3.30;;
1525;SDS011;756;49.982;8.240;2022-08-03T02:46:37;3.83;;;3.53;;
1525;SDS011;756;49.982;8.240;2022-08-03T02:49:07;5.10;;;2.83;;
1525;SDS011;756;49.982;8.240;2022-08-03T02:51:56;4.50;;;3.20;;
1525;SDS011;756;49.982;8.240;2022-08-03T02:54:25;4.63;;;3.03;;
1525;SDS011;756;49.982;8.240;2022-08-03T02:56:53;3.17;;;2.87;;
1525;SDS011;756;49.982;8.240;2022-08-03T02:59:23;4.17;;;3.47;;
1525;SDS011;756;49.982;8.240;2022-08-03T03:01:51;4.30;;;3.50;;
1525;SDS011;756;49.982;8.240;2022-08-03T03:04:20;4.10;;;2.87;;
1525;SDS011;756;49.982;8.240;2022-08-03T03:06:51;3.77;;;3.37;;
1525;SDS011;756;49.982;8.240;2022-08-03T03:09:20;3.97;;;3.67;;
1525;SDS011;756;49.982;8.240;2022-08-03T03:11:48;7.13;;;4.70;;
1525;SDS011;756;49.982;8.240;2022-08-03T03:14:17;3.57;;;3.23;;
1525;SDS011;756;49.982;8.240;2022-08-03T03:16:59;3.80;;;3.27;;
1525;SDS011;756;49.982;8.240;2022-08-03T03:19:27;3.40;;;3.20;;
1525;SDS011;756;49.982;8.240;2022-08-03T03:21:55;4.60;;;3.73;;
1525;SDS011;756;49.982;8.240;2022-08-03T03:24:26;5.03;;;4.53;;
1525;SDS011;756;49.982;8.240;2022-08-03T03:26:54;4.50;;;3.50;;
1525;SDS011;756;49.982;8.240;2022-08-03T03:29:22;5.30;;;3.93;;
1525;SDS011;756;49.982;8.240;2022-08-03T03:31:49;3.97;;;3.60;;
1525;SDS011;756;49.982;8.240;2022-08-03T03:34:16;4.00;;;3.70;;
1525;SDS011;756;49.982;8.240;2022-08-03T03:36:44;5.37;;;3.60;;
1525;SDS011;756;49.982;8.240;2022-08-03T03:39:11;4.40;;;4.00;;
1525;SDS011;756;49.982;8.240;2022-08-03T03:41:41;4.97;;;4.20;;
1525;SDS011;756;49.982;8.240;2022-08-03T03:44:08;5.77;;;3.80;;
1525;SDS011;756;49.982;8.240;2022-08-03T03:46:36;4.43;;;3.50;;
1525;SDS011;756;49.982;8.240;2022-08-03T03:49:04;5.30;;;3.90;;
1525;SDS011;756;49.982;8.240;2022-08-03T03:51:32;3.87;;;3.30;;
1525;SDS011;756;49.982;8.240;2022-08-03T03:54:00;3.93;;;3.63;;
1525;SDS011;756;49.982;8.240;2022-08-03T03:56:29;3.90;;;3.60;;
1525;SDS011;756;49.982;8.240;2022-08-03T03:58:56;4.53;;;3.40;;
1525;SDS011;756;49.982;8.240;2022-08-03T04:01:24;4.33;;;3.90;;
1525;SDS011;756;49.982;8.240;2022-08-03T04:03:51;3.83;;;3.53;;
1525;SDS011;756;49.982;8.240;2022-08-03T04:06:17;3.60;;;3.30;;
1525;SDS011;756;49.982;8.240;2022-08-03T04:09:03;5.87;;;3.87;;
1525;SDS011;756;49.982;8.240;2022-08-03T04:11:52;5.23;;;3.27;;
1525;SDS011;756;49.982;8.240;2022-08-03T04:14:24;3.67;;;3.37;;
1525;SDS011;756;49.982;8.240;2022-08-03T04:16:55;4.63;;;4.23;;
1525;SDS011;756;49.982;8.240;2022-08-03T04:21:55;4.37;;;4.03;;
1525;SDS011;756;49.982;8.240;2022-08-03T04:24:37;4.50;;;4.10;;
1525;SDS011;756;49.982;8.240;2022-08-03T04:27:07;4.20;;;3.90;;
1525;SDS011;756;49.982;8.240;2022-08-03T04:29:38;3.97;;;3.57;;
1525;SDS011;756;49.982;8.240;2022-08-03T04:32:14;4.00;;;3.70;;
1525;SDS011;756;49.982;8.240;2022-08-03T04:34:42;4.13;;;3.83;;
1525;SDS011;756;49.982;8.240;2022-08-03T04:37:10;6.37;;;3.83;;
1525;SDS011;756;49.982;8.240;2022-08-03T04:39:43;4.10;;;3.70;;
1525;SDS011;756;49.982;8.240;2022-08-03T04:42:14;4.63;;;4.03;;
1525;SDS011;756;49.982;8.240;2022-08-03T04:44:41;4.30;;;3.90;;
1525;SDS011;756;49.982;8.240;2022-08-03T04:47:11;6.10;;;4.40;;
1525;SDS011;756;49.982;8.240;2022-08-03T04:49:37;8.13;;;3.43;;
1525;SDS011;756;49.982;8.240;2022-08-03T04:52:08;4.90;;;3.80;;
1525;SDS011;756;49.982;8.240;2022-08-03T04:54:40;5.73;;;4.40;;
1525;SDS011;756;49.982;8.240;2022-08-03T04:57:13;4.00;;;3.70;;
1525;SDS011;756;49.982;8.240;2022-08-03T04:59:49;4.20;;;3.80;;
1525;SDS011;756;49.982;8.240;2022-08-03T05:02:27;3.70;;;3.40;;
1525;SDS011;756;49.982;8.240;2022-08-03T05:04:53;4.57;;;4.17;;
1525;SDS011;756;49.982;8.240;2022-08-03T05:07:20;4.13;;;3.57;;
1525;SDS011;756;49.982;8.240;2022-08-03T05:09:50;5.10;;;4.30;;
1525;SDS011;756;49.982;8.240;2022-08-03T05:12:27;6.60;;;3.37;;
1525;SDS011;756;49.982;8.240;2022-08-03T05:14:58;3.97;;;3.60;;
1525;SDS011;756;49.982;8.240;2022-08-03T05:17:25;4.70;;;4.20;;
1525;SDS011;756;49.982;8.240;2022-08-03T05:19:53;3.80;;;3.50;;
1525;SDS011;756;49.982;8.240;2022-08-03T05:22:21;3.83;;;3.53;;
1525;SDS011;756;49.982;8.240;2022-08-03T05:24:48;5.00;;;3.80;;
1525;SDS011;756;49.982;8.240;2022-08-03T05:27:15;4.10;;;3.80;;
1525;SDS011;756;49.982;8.240;2022-08-03T05:29:44;6.57;;;4.10;;
1525;SDS011;756;49.982;8.240;2022-08-03T05:32:12;5.03;;;3.80;;
1525;SDS011;756;49.982;8.240;2022-08-03T05:34:39;5.50;;;4.00;;
1525;SDS011;756;49.982;8.240;2022-08-03T05:37:05;4.03;;;3.60;;
1525;SDS011;756;49.982;8.240;2022-08-03T05:39:33;3.87;;;3.57;;
1525;SDS011;756;49.982;8.240;2022-08-03T05:42:00;3.60;;;3.20;;
1525;SDS011;756;49.982;8.240;2022-08-03T05:44:27;5.80;;;3.30;;
1525;SDS011;756;49.982;8.240;2022-08-03T05:46:55;4.00;;;3.60;;
1525;SDS011;756;49.982;8.240;2022-08-03T05:49:23;3.50;;;3.30;;
1525;SDS011;756;49.982;8.240;2022-08-03T05:51:49;4.33;;;3.77;;
1525;SDS011;756;49.982;8.240;2022-08-03T05:54:36;3.93;;;3.33;;
1525;SDS011;756;49.982;8.240;2022-08-03T05:57:23;3.87;;;3.57;;
1525;SDS011;756;49.982;8.240;2022-08-03T05:59:50;5.00;;;3.97;;
1525;SDS011;756;49.982;8.240;2022-08-03T06:02:23;4.90;;;3.23;;
1525;SDS011;756;49.982;8.240;2022-08-03T06:04:53;4.50;;;3.40;;
1525;SDS011;756;49.982;8.240;2022-08-03T06:07:20;6.20;;;3.73;;
1525;SDS011;756;49.982;8.240;2022-08-03T06:09:47;3.60;;;3.30;;
1525;SDS011;756;49.982;8.240;2022-08-03T06:12:33;6.40;;;3.70;;
1525;SDS011;756;49.982;8.240;2022-08-03T06:15:04;4.77;;;3.80;;
1525;SDS011;756;49.982;8.240;2022-08-03T06:17:32;4.13;;;3.73;;
1525;SDS011;756;49.982;8.240;2022-08-03T06:20:03;4.87;;;4.40;;
1525;SDS011;756;49.982;8.240;2022-08-03T06:22:31;6.73;;;3.40;;
1525;SDS011;756;49.982;8.240;2022-08-03T06:24:57;4.37;;;3.90;;
1525;SDS011;756;49.982;8.240;2022-08-03T06:27:31;3.43;;;3.10;;
1525;SDS011;756;49.982;8.240;2022-08-03T06:30:02;5.13;;;3.17;;
1525;SDS011;756;49.982;8.240;2022-08-03T06:32:30;4.67;;;3.00;;
1525;SDS011;756;49.982;8.240;2022-08-03T06:35:00;3.60;;;3.00;;
1525;SDS011;756;49.982;8.240;2022-08-03T06:37:29;3.40;;;2.60;;
1525;SDS011;756;49.982;8.240;2022-08-03T06:39:56;4.77;;;2.90;;
1525;SDS011;756;49.982;8.240;2022-08-03T06:42:23;3.83;;;3.47;;
1525;SDS011;756;49.982;8.240;2022-08-03T06:44:50;3.17;;;2.97;;
1525;SDS011;756;49.982;8.240;2022-08-03T06:47:17;5.33;;;3.57;;
1525;SDS011;756;49.982;8.240;2022-08-03T06:49:43;3.00;;;2.70;;
1525;SDS011;756;49.982;8.240;2022-08-03T06:52:30;6.83;;;3.73;;
1525;SDS011;756;49.982;8.240;2022-08-03T06:55:04;3.60;;;3.30;;
1525;SDS011;756;49.982;8.240;2022-08-03T06:57:31;3.70;;;3.27;;
1525;SDS011;756;49.982;8.240;2022-08-03T06:59:58;5.03;;;3.97;;
1525;SDS011;756;49.982;8.240;2022-08-03T07:02:38;4.83;;;3.00;;
1525;SDS011;756;49.982;8.240;2022-08-03T07:05:05;5.17;;;3.73;;
1525;SDS011;756;49.982;8.240;2022-08-03T07:07:32;4.70;;;3.43;;
1525;SDS011;756;49.982;8.240;2022-08-03T07:09:59;4.57;;;3.03;;
1525;SDS011;756;49.982;8.240;2022-08-03T07:12:28;3.30;;;3.00;;
1525;SDS011;756;49.982;8.240;2022-08-03T07:14:56;4.53;;;2.90;;
1525;SDS011;756;49.982;8.240;2022-08-03T07:17:31;4.17;;;3.27;;
1525;SDS011;756;49.982;8.240;2022-08-03T07:20:00;5.10;;;3.60;;
1525;SDS011;756;49.982;8.240;2022-08-03T07:22:29;4.27;;;3.30;;
1525;SDS011;756;49.982;8.240;2022-08-03T07:24:55;3.30;;;3.00;;
1525;SDS011;756;49.982;8.240;2022-08-03T07:27:22;4.07;;;3.40;;
1525;SDS011;756;49.982;8.240;2022-08-03T07:29:51;5.00;;;3.90;;
1525;SDS011;756;49.982;8.240;2022-08-03T07:32:18;4.23;;;3.80;;
1525;SDS011;756;49.982;8.240;2022-08-03T07:34:45;4.27;;;3.50;;
1525;SDS011;756;49.982;8.240;2022-08-03T07:37:12;3.70;;;3.40;;
1525;SDS011;756;49.982;8.240;2022-08-03T07:39:38;4.80;;;3.40;;
1525;SDS011;756;49.982;8.240;2022-08-03T07:42:05;3.87;;;3.40;;
1525;SDS011;756;49.982;8.240;2022-08-03T07:44:32;4.50;;;3.37;;
1525;SDS011;756;49.982;8.240;2022-08-03T07:46:59;4.00;;;2.77;;
1525;SDS011;756;49.982;8.240;2022-08-03T07:49:28;5.43;;;3.40;;
1525;SDS011;756;49.982;8.240;2022-08-03T07:51:55;4.33;;;3.47;;
1525;SDS011;756;49.982;8.240;2022-08-03T07:54:41;4.63;;;3.17;;
1525;SDS011;756;49.982;8.240;2022-08-03T07:57:08;6.13;;;3.80;;
1525;SDS011;756;49.982;8.240;2022-08-03T07:59:34;3.67;;;3.23;;
1525;SDS011;756;49.982;8.240;2022-08-03T08:02:23;4.87;;;3.13;;
1525;SDS011;756;49.982;8.240;2022-08-03T08:04:50;2.93;;;2.73;;
1525;SDS011;756;49.982;8.240;2022-08-03T08:07:17;3.83;;;3.40;;
1525;SDS011;756;49.982;8.240;2022-08-03T08:09:45;8.10;;;4.20;;
1525;SDS011;756;49.982;8.240;2022-08-03T08:12:12;4.50;;;3.23;;
1525;SDS011;756;49.982;8.240;2022-08-03T08:14:40;3.97;;;3.57;;
1525;SDS011;756;49.982;8.240;2022-08-03T08:17:10;3.30;;;3.00;;
1525;SDS011;756;49.982;8.240;2022-08-03T08:19:38;3.77;;;3.30;;
1525;SDS011;756;49.982;8.240;2022-08-03T08:22:16;3.13;;;2.93;;
1525;SDS011;756;49.982;8.240;2022-08-03T08:24:55;4.72;;;3.35;;
1525;SDS011;756;49.982;8.240;2022-08-03T08:27:22;3.50;;;3.20;;
1525;SDS011;756;49.982;8.240;2022-08-03T08:29:48;5.38;;;2.50;;
1525;SDS011;756;49.982;8.240;2022-08-03T08:32:21;3.00;;;2.67;;
1525;SDS011;756;49.982;8.240;2022-08-03T08:34:48;4.82;;;2.50;;
1525;SDS011;756;49.982;8.240;2022-08-03T08:37:15;2.65;;;2.45;;
1525;SDS011;756;49.982;8.240;2022-08-03T08:39:41;3.70;;;3.40;;
1525;SDS011;756;49.982;8.240;2022-08-03T08:42:08;2.72;;;2.53;;
1525;SDS011;756;49.982;8.240;2022-08-03T08:44:35;7.03;;;2.90;;
1525;SDS011;756;49.982;8.240;2022-08-03T08:47:02;3.63;;;3.10;;
1525;SDS011;756;49.982;8.240;2022-08-03T08:49:29;3.35;;;2.80;;
1525;SDS011;756;49.982;8.240;2022-08-03T08:52:01;6.28;;;2.85;;
1525;SDS011;756;49.982;8.240;2022-08-03T08:54:51;2.80;;;2.60;;
1525;SDS011;756;49.982;8.240;2022-08-03T08:57:34;2.70;;;2.50;;
1525;SDS011;756;49.982;8.240;2022-08-03T09:00:09;3.90;;;2.78;;
1525;SDS011;756;49.982;8.240;2022-08-03T09:02:40;2.90;;;2.70;;
1525;SDS011;756;49.982;8.240;2022-08-03T09:05:12;3.47;;;2.38;;
1525;SDS011;756;49.982;8.240;2022-08-03T09:07:41;3.20;;;2.88;;
1525;SDS011;756;49.982;8.240;2022-08-03T09:10:09;3.28;;;2.63;;
1525;SDS011;756;49.982;8.240;2022-08-03T09:12:42;3.20;;;2.90;;
1525;SDS011;756;49.982;8.240;2022-08-03T09:15:18;3.50;;;2.33;;
1525;SDS011;756;49.982;8.240;2022-08-03T09:17:47;4.28;;;2.85;;
1525;SDS011;756;49.982;8.240;2022-08-03T09:20:17;4.13;;;2.67;;
1525;SDS011;756;49.982;8.240;2022-08-03T09:25:58;5.18;;;2.70;;
1525;SDS011;756;49.982;8.240;2022-08-03T09:28:32;2.97;;;2.75;;
1525;SDS011;756;49.982;8.240;2022-08-03T09:31:28;4.43;;;2.60;;
1525;SDS011;756;49.982;8.240;2022-08-03T09:34:09;2.88;;;2.67;;
1525;SDS011;756;49.982;8.240;2022-08-03T09:39:05;2.88;;;2.67;;
1525;SDS011;756;49.982;8.240;2022-08-03T09:41:37;3.60;;;3.00;;
1525;SDS011;756;49.982;8.240;2022-08-03T09:44:04;3.92;;;2.30;;
1525;SDS011;756;49.982;8.240;2022-08-03T09:46:44;2.90;;;2.10;;
1525;SDS011;756;49.982;8.240;2022-08-03T09:49:15;3.60;;;2.47;;
1525;SDS011;756;49.982;8.240;2022-08-03T09:51:43;3.58;;;2.50;;
1525;SDS011;756;49.982;8.240;2022-08-03T09:54:30;3.08;;;2.78;;
1525;SDS011;756;49.982;8.240;2022-08-03T09:56:57;6.45;;;1.98;;
1525;SDS011;756;49.982;8.240;2022-08-03T09:59:25;2.58;;;2.38;;
1525;SDS011;756;49.982;8.240;2022-08-03T10:01:54;2.20;;;2.00;;
1525;SDS011;756;49.982;8.240;2022-08-03T10:04:22;5.03;;;2.88;;
1525;SDS011;756;49.982;8.240;2022-08-03T10:07:05;2.30;;;2.20;;
1525;SDS011;756;49.982;8.240;2022-08-03T10:09:36;2.45;;;2.30;;
1525;SDS011;756;49.982;8.240;2022-08-03T10:12:09;2.85;;;2.35;;
1525;SDS011;756;49.982;8.240;2022-08-03T10:14:38;2.70;;;2.50;;
1525;SDS011;756;49.982;8.240;2022-08-03T10:17:08;3.05;;;2.45;;
1525;SDS011;756;49.982;8.240;2022-08-03T10:19:35;3.17;;;2.55;;
1525;SDS011;756;49.982;8.240;2022-08-03T10:22:03;3.47;;;2.10;;
1525;SDS011;756;49.982;8.240;2022-08-03T10:24:35;2.58;;;2.38;;
1525;SDS011;756;49.982;8.240;2022-08-03T10:27:07;4.00;;;2.70;;
1525;SDS011;756;49.982;8.240;2022-08-03T10:29:39;5.03;;;2.38;;
1525;SDS011;756;49.982;8.240;2022-08-03T10:32:25;4.82;;;2.60;;
1525;SDS011;756;49.982;8.240;2022-08-03T10:34:57;6.35;;;2.55;;
1525;SDS011;756;49.982;8.240;2022-08-03T10:37:51;3.03;;;2.72;;
1525;SDS011;756;49.982;8.240;2022-08-03T10:40:25;2.55;;;2.35;;
1525;SDS011;756;49.982;8.240;2022-08-03T10:43:18;2.60;;;2.40;;
1525;SDS011;756;49.982;8.240;2022-08-03T10:46:02;2.60;;;2.38;;
1525;SDS011;756;49.982;8.240;2022-08-03T10:48:31;2.80;;;2.60;;
1525;SDS011;756;49.982;8.240;2022-08-03T10:51:00;3.50;;;2.60;;
1525;SDS011;756;49.982;8.240;2022-08-03T10:53:34;4.38;;;2.72;;
1525;SDS011;756;49.982;8.240;2022-08-03T10:56:03;3.63;;;3.33;;
1525;SDS011;756;49.982;8.240;2022-08-03T10:59:09;2.83;;;2.63;;
1525;SDS011;756;49.982;8.240;2022-08-03T11:01:49;3.10;;;2.80;;
1525;SDS011;756;49.982;8.240;2022-08-03T11:04:26;2.47;;;2.28;;
1525;SDS011;756;49.982;8.240;2022-08-03T11:09:52;3.13;;;2.70;;
1525;SDS011;756;49.982;8.240;2022-08-03T11:15:01;2.40;;;2.30;;
1525;SDS011;756;49.982;8.240;2022-08-03T11:17:31;3.25;;;3.00;;
1525;SDS011;756;49.982;8.240;2022-08-03T11:20:12;2.80;;;2.60;;
1525;SDS011;756;49.982;8.240;2022-08-03T11:22:48;3.50;;;2.17;;
1525;SDS011;756;49.982;8.240;2022-08-03T11:25:19;2.97;;;2.67;;
1525;SDS011;756;49.982;8.240;2022-08-03T11:28:25;2.63;;;2.38;;
1525;SDS011;756;49.982;8.240;2022-08-03T11:30:55;2.97;;;2.67;;
1525;SDS011;756;49.982;8.240;2022-08-03T11:34:06;3.50;;;1.90;;
1525;SDS011;756;49.982;8.240;2022-08-03T11:39:42;4.05;;;2.17;;
1525;SDS011;756;49.982;8.240;2022-08-03T11:44:57;2.38;;;2.17;;
1525;SDS011;756;49.982;8.240;2022-08-03T11:47:26;3.15;;;2.72;;
1525;SDS011;756;49.982;8.240;2022-08-03T11:49:55;3.33;;;3.03;;
1525;SDS011;756;49.982;8.240;2022-08-03T11:52:24;2.08;;;1.88;;
1525;SDS011;756;49.982;8.240;2022-08-03T11:54:54;2.22;;;2.13;;
1525;SDS011;756;49.982;8.240;2022-08-03T11:57:29;2.08;;;1.95;;
1525;SDS011;756;49.982;8.240;2022-08-03T12:00:27;2.53;;;2.33;;
1525;SDS011;756;49.982;8.240;2022-08-03T12:02:56;2.30;;;2.10;;
1525;SDS011;756;49.982;8.240;2022-08-03T12:10:53;4.00;;;2.65;;
1525;SDS011;756;49.982;8.240;2022-08-03T12:13:21;2.80;;;2.58;;
1525;SDS011;756;49.982;8.240;2022-08-03T12:16:08;2.28;;;2.13;;
1525;SDS011;756;49.982;8.240;2022-08-03T12:18:35;3.28;;;2.10;;
1525;SDS011;756;49.982;8.240;2022-08-03T12:21:04;2.45;;;2.25;;
1525;SDS011;756;49.982;8.240;2022-08-03T12:23:34;2.75;;;2.22;;
1525;SDS011;756;49.982;8.240;2022-08-03T12:26:07;3.85;;;2.80;;
1525;SDS011;756;49.982;8.240;2022-08-03T12:28:35;2.65;;;2.28;;
1525;SDS011;756;49.982;8.240;2022-08-03T12:31:05;2.60;;;2.40;;
1525;SDS011;756;49.982;8.240;2022-08-03T12:33:53;2.63;;;2.42;;
1525;SDS011;756;49.982;8.240;2022-08-03T12:36:24;2.83;;;2.65;;
1525;SDS011;756;49.982;8.240;2022-08-03T12:38:53;3.90;;;2.30;;
1525;SDS011;756;49.982;8.240;2022-08-03T12:41:35;4.40;;;2.72;;
1525;SDS011;756;49.982;8.240;2022-08-03T12:44:04;4.85;;;2.60;;
1525;SDS011;756;49.982;8.240;2022-08-03T12:46:33;2.70;;;2.50;;
1525;SDS011;756;49.982;8.240;2022-08-03T12:51:29;2.67;;;2.17;;
1525;SDS011;756;49.982;8.240;2022-08-03T12:53:58;2.08;;;1.98;;
1525;SDS011;756;49.982;8.240;2022-08-03T12:56:25;1.95;;;1.85;;
1525;SDS011;756;49.982;8.240;2022-08-03T12:58:52;2.00;;;1.90;;
1525;SDS011;756;49.982;8.240;2022-08-03T13:01:19;2.17;;;1.98;;
1525;SDS011;756;49.982;8.240;2022-08-03T13:03:51;4.93;;;2.78;;
1525;SDS011;756;49.982;8.240;2022-08-03T13:06:20;4.60;;;2.28;;
1525;SDS011;756;49.982;8.240;2022-08-03T13:08:48;3.78;;;2.20;;
1525;SDS011;756;49.982;8.240;2022-08-03T13:11:26;2.88;;;2.58;;
1525;SDS011;756;49.982;8.240;2022-08-03T13:14:13;2.53;;;2.33;;
1525;SDS011;756;49.982;8.240;2022-08-03T13:16:45;3.70;;;2.20;;
1525;SDS011;756;49.982;8.240;2022-08-03T13:19:12;2.72;;;1.95;;
1525;SDS011;756;49.982;8.240;2022-08-03T13:21:41;2.63;;;2.30;;
1525;SDS011;756;49.982;8.240;2022-08-03T13:24:29;5.65;;;2.30;;
1525;SDS011;756;49.982;8.240;2022-08-03T13:26:57;2.17;;;1.80;;
1525;SDS011;756;49.982;8.240;2022-08-03T13:29:24;2.95;;;2.28;;
1525;SDS011;756;49.982;8.240;2022-08-03T13:31:51;3.20;;;2.10;;
1525;SDS011;756;49.982;8.240;2022-08-03T13:34:18;2.80;;;2.60;;
1525;SDS011;756;49.982;8.240;2022-08-03T13:36:49;2.63;;;2.08;;
1525;SDS011;756;49.982;8.240;2022-08-03T13:39:39;2.55;;;2.35;;
1525;SDS011;756;49.982;8.240;2022-08-03T13:42:26;2.80;;;2.58;;
1525;SDS011;756;49.982;8.240;2022-08-03T13:44:54;3.00;;;2.65;;
1525;SDS011;756;49.982;8.240;2022-08-03T13:47:21;2.10;;;1.90;;
1525;SDS011;756;49.982;8.240;2022-08-03T13:49:48;2.30;;;2.20;;
1525;SDS011;756;49.982;8.240;2022-08-03T13:52:30;2.60;;;2.38;;
1525;SDS011;756;49.982;8.240;2022-08-03T13:54:59;2.40;;;2.30;;
1525;SDS011;756;49.982;8.240;2022-08-03T13:57:26;1.83;;;1.73;;
1525;SDS011;756;49.982;8.240;2022-08-03T14:00:14;4.20;;;2.28;;
1525;SDS011;756;49.982;8.240;2022-08-03T14:02:53;2.55;;;2.30;;
1525;SDS011;756;49.982;8.240;2022-08-03T14:05:28;2.38;;;2.13;;
1525;SDS011;756;49.982;8.240;2022-08-03T14:07:57;2.53;;;1.63;;
1525;SDS011;756;49.982;8.240;2022-08-03T14:10:30;2.10;;;1.73;;
1525;SDS011;756;49.982;8.240;2022-08-03T14:12:58;1.95;;;1.85;;
1525;SDS011;756;49.982;8.240;2022-08-03T14:15:25;2.58;;;1.88;;
1525;SDS011;756;49.982;8.240;2022-08-03T14:17:54;2.53;;;1.65;;
1525;SDS011;756;49.982;8.240;2022-08-03T14:20:24;2.50;;;1.98;;
1525;SDS011;756;49.982;8.240;2022-08-03T14:23:11;1.88;;;1.65;;
1525;SDS011;756;49.982;8.240;2022-08-03T14:25:39;2.17;;;2.00;;
1525;SDS011;756;49.982;8.240;2022-08-03T14:28:15;1.67;;;1.58;;
1525;SDS011;756;49.982;8.240;2022-08-03T14:30:43;5.40;;;2.17;;
1525;SDS011;756;49.982;8.240;2022-08-03T14:33:10;4.65;;;2.20;;
1525;SDS011;756;49.982;8.240;2022-08-03T14:35:37;2.17;;;1.98;;
1525;SDS011;756;49.982;8.240;2022-08-03T14:38:04;2.10;;;2.00;;
1525;SDS011;756;49.982;8.240;2022-08-03T14:40:31;3.80;;;2.17;;
1525;SDS011;756;49.982;8.240;2022-08-03T14:42:57;2.83;;;2.47;;
1525;SDS011;756;49.982;8.240;2022-08-03T14:45:24;2.92;;;2.30;;
1525;SDS011;756;49.982;8.240;2022-08-03T14:47:51;3.60;;;2.30;;
1525;SDS011;756;49.982;8.240;2022-08-03T14:50:38;2.22;;;2.03;;
1525;SDS011;756;49.982;8.240;2022-08-03T14:53:13;2.50;;;2.30;;
1525;SDS011;756;49.982;8.240;2022-08-03T14:55:42;3.25;;;1.95;;
1525;SDS011;756;49.982;8.240;2022-08-03T14:58:17;3.30;;;2.05;;
1525;SDS011;756;49.982;8.240;2022-08-03T15:00:47;4.38;;;2.08;;
1525;SDS011;756;49.982;8.240;2022-08-03T15:03:15;3.58;;;2.10;;
1525;SDS011;756;49.982;8.240;2022-08-03T15:05:45;2.08;;;1.80;;
1525;SDS011;756;49.982;8.240;2022-08-03T15:08:12;3.13;;;2.63;;
1525;SDS011;756;49.982;8.240;2022-08-03T15:10:38;2.33;;;2.10;;
1525;SDS011;756;49.982;8.240;2022-08-03T15:13:13;4.15;;;2.03;;
1525;SDS011;756;49.982;8.240;2022-08-03T15:15:40;2.53;;;2.10;;
1525;SDS011;756;49.982;8.240;2022-08-03T15:18:07;2.10;;;2.00;;
1525;SDS011;756;49.982;8.240;2022-08-03T15:20:34;3.78;;;2.42;;
1525;SDS011;756;49.982;8.240;2022-08-03T15:23:10;2.55;;;2.13;;
1525;SDS011;756;49.982;8.240;2022-08-03T15:25:38;2.75;;;1.92;;
1525;SDS011;756;49.982;8.240;2022-08-03T15:28:24;2.95;;;2.28;;
1525;SDS011;756;49.982;8.240;2022-08-03T15:30:51;2.58;;;2.00;;
1525;SDS011;756;49.982;8.240;2022-08-03T15:33:18;1.92;;;1.83;;
1525;SDS011;756;49.982;8.240;2022-08-03T15:35:45;2.00;;;1.80;;
1525;SDS011;756;49.982;8.240;2022-08-03T15:38:12;2.92;;;2.13;;
1525;SDS011;756;49.982;8.240;2022-08-03T15:40:40;2.30;;;1.80;;
1525;SDS011;756;49.982;8.240;2022-08-03T15:43:06;1.98;;;1.83;;
1525;SDS011;756;49.982;8.240;2022-08-03T15:45:34;4.68;;;2.25;;
1525;SDS011;756;49.982;8.240;2022-08-03T15:48:02;4.68;;;1.98;;
1525;SDS011;756;49.982;8.240;2022-08-03T15:50:31;3.25;;;2.13;;
1525;SDS011;756;49.982;8.240;2022-08-03T15:52:58;2.00;;;1.90;;
1525;SDS011;756;49.982;8.240;2022-08-03T15:55:25;5.15;;;2.45;;
1525;SDS011;756;49.982;8.240;2022-08-03T15:57:52;2.20;;;2.10;;
1525;SDS011;756;49.982;8.240;2022-08-03T16:00:39;4.07;;;2.25;;
1525;SDS011;756;49.982;8.240;2022-08-03T16:03:06;2.40;;;1.75;;
1525;SDS011;756;49.982;8.240;2022-08-03T16:05:33;3.55;;;2.15;;
1525;SDS011;756;49.982;8.240;2022-08-03T16:08:00;2.55;;;2.35;;
1525;SDS011;756;49.982;8.240;2022-08-03T16:10:30;2.03;;;1.92;;
1525;SDS011;756;49.982;8.240;2022-08-03T16:12:57;2.10;;;1.90;;
1525;SDS011;756;49.982;8.240;2022-08-03T16:15:25;2.47;;;2.33;;
1525;SDS011;756;49.982;8.240;2022-08-03T16:17:52;3.05;;;2.55;;
1525;SDS011;756;49.982;8.240;2022-08-03T16:20:19;2.67;;;1.92;;
1525;SDS011;756;49.982;8.240;2022-08-03T16:22:59;2.90;;;2.60;;
1525;SDS011;756;49.982;8.240;2022-08-03T16:25:30;4.50;;;2.33;;
1525;SDS011;756;49.982;8.240;2022-08-03T16:27:57;2.47;;;2.28;;
1525;SDS011;756;49.982;8.240;2022-08-03T16:30:38;2.58;;;2.20;;
1525;SDS011;756;49.982;8.240;2022-08-03T16:33:09;2.55;;;2.35;;
1525;SDS011;756;49.982;8.240;2022-08-03T16:35:43;2.45;;;2.25;;
1525;SDS011;756;49.982;8.240;2022-08-03T16:38:10;3.72;;;1.77;;